sensor_id;sensor_type;location;lat;lon;timestamp;temperature;humidity
15364;DHT22;7781;49.690;6.472;2023-04-10T00:01:17;3.10;99.90
15364;DHT22;7781;49.690;6.472;2023-04-10T00:03:46;3.00;99.90
15364;DHT22;7781;49.690;6.472;2023-04-10T00:06:15;3.00;99.90
15364;DHT22;7781;49.690;6.472;2023-04-10T00:08:45;2.90;99.90
15364;DHT22;7781;49.690;6.472;2023-04-10T00:11:13;2.90;99.90
15364;DHT22;7781;49.690;6.472;2023-04-10T00:13:46;2.90;99.90
15364;DHT22;7781;49.690;6.472;2023-04-10T00:16:14;2.90;99.90
15364;DHT22;7781;49.690;6.472;2023-04-10T00:18:43;2.90;99.90
15364;DHT22;7781;49.690;6.472;2023-04-10T00:21:13;2.80;99.90
15364;DHT22;7781;49.690;6.472;2023-04-10T00:23:42;2.80;99.90
15364;DHT22;7781;49.690;6.472;2023-04-10T00:26:10;2.80;99.90
15364;DHT22;7781;49.690;6.472;2023-04-10T00:28:40;2.80;99.90
15364;DHT22;7781;49.690;6.472;2023-04-10T00:31:11;2.80;99.90
15364;DHT22;7781;49.690;6.472;2023-04-10T00:33:40;2.80;99.90
15364;DHT22;7781;49.690;6.472;2023-04-10T00:36:10;2.70;99.90
15364;DHT22;7781;49.690;6.472;2023-04-10T00:38:39;2.70;99.90
15364;DHT22;7781;49.690;6.472;2023-04-10T00:41:10;2.70;99.90
15364;DHT22;7781;49.690;6.472;2023-04-10T00:43:38;2.70;99.90
15364;DHT22;7781;49.690;6.472;2023-04-10T00:46:07;2.70;99.90
15364;DHT22;7781;49.690;6.472;2023-04-10T00:48:37;2.70;99.90
15364;DHT22;7781;49.690;6.472;2023-04-10T00:51:06;2.70;99.90
15364;DHT22;7781;49.690;6.472;2023-04-10T00:53:35;2.60;99.90
15364;DHT22;7781;49.690;6.472;2023-04-10T00:56:05;2.60;99.90
15364;DHT22;7781;49.690;6.472;2023-04-10T00:58:35;2.60;99.90
15364;DHT22;7781;49.690;6.472;2023-04-10T01:01:06;2.60;99.90
15364;DHT22;7781;49.690;6.472;2023-04-10T01:03:37;2.50;99.90
15364;DHT22;7781;49.690;6.472;2023-04-10T01:06:18;2.60;99.90
15364;DHT22;7781;49.690;6.472;2023-04-10T01:08:54;2.50;99.90
15364;DHT22;7781;49.690;6.472;2023-04-10T01:11:40;2.50;99.90
15364;DHT22;7781;49.690;6.472;2023-04-10T01:14:22;2.50;99.90
15364;DHT22;7781;49.690;6.472;2023-04-10T01:16:55;2.40;99.90
15364;DHT22;7781;49.690;6.472;2023-04-10T01:19:35;2.40;99.90
15364;DHT22;7781;49.690;6.472;2023-04-10T01:22:13;2.30;99.90
15364;DHT22;7781;49.690;6.472;2023-04-10T01:24:55;2.30;99.90
15364;DHT22;7781;49.690;6.472;2023-04-10T01:27:42;2.40;99.90
15364;DHT22;7781;49.690;6.472;2023-04-10T01:30:17;2.40;99.90
15364;DHT22;7781;49.690;6.472;2023-04-10T01:32:49;2.40;99.90
15364;DHT22;7781;49.690;6.472;2023-04-10T01:35:27;2.40;99.90
15364;DHT22;7781;49.690;6.472;2023-04-10T01:37:59;2.40;99.90
15364;DHT22;7781;49.690;6.472;2023-04-10T01:40:30;2.50;99.90
15364;DHT22;7781;49.690;6.472;2023-04-10T01:43:01;2.50;99.90
15364;DHT22;7781;49.690;6.472;2023-04-10T01:45:44;2.60;99.90
15364;DHT22;7781;49.690;6.472;2023-04-10T01:48:17;2.50;99.90
15364;DHT22;7781;49.690;6.472;2023-04-10T01:50:46;2.60;99.90
15364;DHT22;7781;49.690;6.472;2023-04-10T01:53:17;2.50;99.90
15364;DHT22;7781;49.690;6.472;2023-04-10T01:55:48;2.60;99.90
15364;DHT22;7781;49.690;6.472;2023-04-10T01:58:18;2.50;99.90
15364;DHT22;7781;49.690;6.472;2023-04-10T02:00:49;2.50;99.90
15364;DHT22;7781;49.690;6.472;2023-04-10T02:03:19;2.40;99.90
15364;DHT22;7781;49.690;6.472;2023-04-10T02:05:55;2.40;99.90
15364;DHT22;7781;49.690;6.472;2023-04-10T02:08:34;2.40;99.90
15364;DHT22;7781;49.690;6.472;2023-04-10T02:11:12;2.40;99.90
15364;DHT22;7781;49.690;6.472;2023-04-10T02:13:43;2.40;99.90
15364;DHT22;7781;49.690;6.472;2023-04-10T02:16:18;2.30;99.90
15364;DHT22;7781;49.690;6.472;2023-04-10T02:18:49;2.30;99.90
15364;DHT22;7781;49.690;6.472;2023-04-10T02:21:20;2.20;99.90
15364;DHT22;7781;49.690;6.472;2023-04-10T02:23:49;2.20;99.90
15364;DHT22;7781;49.690;6.472;2023-04-10T02:26:19;2.20;99.90
15364;DHT22;7781;49.690;6.472;2023-04-10T02:28:51;2.10;99.90
15364;DHT22;7781;49.690;6.472;2023-04-10T02:31:23;2.20;99.90
15364;DHT22;7781;49.690;6.472;2023-04-10T02:33:53;2.20;99.90
15364;DHT22;7781;49.690;6.472;2023-04-10T02:36:22;2.20;99.90
15364;DHT22;7781;49.690;6.472;2023-04-10T02:38:55;2.20;99.90
15364;DHT22;7781;49.690;6.472;2023-04-10T02:41:24;2.10;99.90
15364;DHT22;7781;49.690;6.472;2023-04-10T02:43:56;2.10;99.90
15364;DHT22;7781;49.690;6.472;2023-04-10T02:46:29;2.20;99.90
15364;DHT22;7781;49.690;6.472;2023-04-10T02:48:58;2.00;99.90
15364;DHT22;7781;49.690;6.472;2023-04-10T02:51:28;2.00;99.90
15364;DHT22;7781;49.690;6.472;2023-04-10T02:53:57;2.00;99.90
15364;DHT22;7781;49.690;6.472;2023-04-10T02:56:32;2.00;99.90
15364;DHT22;7781;49.690;6.472;2023-04-10T02:59:00;2.00;99.90
15364;DHT22;7781;49.690;6.472;2023-04-10T03:01:32;1.90;99.90
15364;DHT22;7781;49.690;6.472;2023-04-10T03:04:01;1.90;99.90
15364;DHT22;7781;49.690;6.472;2023-04-10T03:06:36;1.90;99.90
15364;DHT22;7781;49.690;6.472;2023-04-10T03:09:06;1.90;99.90
15364;DHT22;7781;49.690;6.472;2023-04-10T03:11:36;1.90;99.90
15364;DHT22;7781;49.690;6.472;2023-04-10T03:14:08;2.00;99.90
15364;DHT22;7781;49.690;6.472;2023-04-10T03:16:40;2.00;99.90
15364;DHT22;7781;49.690;6.472;2023-04-10T03:19:08;2.10;99.90
15364;DHT22;7781;49.690;6.472;2023-04-10T03:21:40;2.10;99.90
15364;DHT22;7781;49.690;6.472;2023-04-10T03:24:09;2.10;99.90
15364;DHT22;7781;49.690;6.472;2023-04-10T03:26:43;2.10;99.90
15364;DHT22;7781;49.690;6.472;2023-04-10T03:29:14;2.10;99.90
15364;DHT22;7781;49.690;6.472;2023-04-10T03:31:47;2.00;99.90
15364;DHT22;7781;49.690;6.472;2023-04-10T03:34:15;2.00;99.90
15364;DHT22;7781;49.690;6.472;2023-04-10T03:36:44;2.00;99.90
15364;DHT22;7781;49.690;6.472;2023-04-10T03:39:15;2.00;99.90
15364;DHT22;7781;49.690;6.472;2023-04-10T03:41:44;2.00;99.90
15364;DHT22;7781;49.690;6.472;2023-04-10T03:44:13;2.00;99.90
15364;DHT22;7781;49.690;6.472;2023-04-10T03:46:42;2.00;99.90
15364;DHT22;7781;49.690;6.472;2023-04-10T03:49:15;2.00;99.90
15364;DHT22;7781;49.690;6.472;2023-04-10T03:51:48;1.90;99.90
15364;DHT22;7781;49.690;6.472;2023-04-10T03:54:18;1.90;99.90
15364;DHT22;7781;49.690;6.472;2023-04-10T03:56:47;2.00;99.90
15364;DHT22;7781;49.690;6.472;2023-04-10T03:59:15;1.90;99.90
15364;DHT22;7781;49.690;6.472;2023-04-10T04:01:44;1.90;99.90
15364;DHT22;7781;49.690;6.472;2023-04-10T04:04:15;1.90;99.90
15364;DHT22;7781;49.690;6.472;2023-04-10T04:06:59;1.70;99.90
15364;DHT22;7781;49.690;6.472;2023-04-10T04:09:45;1.60;99.90
15364;DHT22;7781;49.690;6.472;2023-04-10T04:12:19;1.60;99.90
15364;DHT22;7781;49.690;6.472;2023-04-10T04:15:02;1.50;99.90
15364;DHT22;7781;49.690;6.472;2023-04-10T04:17:46;1.40;99.90
15364;DHT22;7781;49.690;6.472;2023-04-10T04:20:35;1.30;99.90
15364;DHT22;7781;49.690;6.472;2023-04-10T04:23:14;1.30;99.90
15364;DHT22;7781;49.690;6.472;2023-04-10T04:26:04;1.10;99.90
15364;DHT22;7781;49.690;6.472;2023-04-10T04:28:59;1.00;99.90
15364;DHT22;7781;49.690;6.472;2023-04-10T04:31:46;1.00;99.90
15364;DHT22;7781;49.690;6.472;2023-04-10T04:34:33;0.90;99.90
15364;DHT22;7781;49.690;6.472;2023-04-10T04:37:10;1.00;99.90
15364;DHT22;7781;49.690;6.472;2023-04-10T04:40:01;1.00;99.90
15364;DHT22;7781;49.690;6.472;2023-04-10T04:42:35;0.90;99.90
15364;DHT22;7781;49.690;6.472;2023-04-10T04:45:26;0.90;99.90
15364;DHT22;7781;49.690;6.472;2023-04-10T04:48:12;0.90;99.90
15364;DHT22;7781;49.690;6.472;2023-04-10T04:50:54;0.80;99.90
15364;DHT22;7781;49.690;6.472;2023-04-10T04:53:41;0.70;99.90
15364;DHT22;7781;49.690;6.472;2023-04-10T04:56:31;0.70;99.90
15364;DHT22;7781;49.690;6.472;2023-04-10T04:59:14;0.80;99.90
15364;DHT22;7781;49.690;6.472;2023-04-10T05:02:10;0.70;99.90
15364;DHT22;7781;49.690;6.472;2023-04-10T05:04:58;0.70;99.90
15364;DHT22;7781;49.690;6.472;2023-04-10T05:07:56;0.70;99.90
15364;DHT22;7781;49.690;6.472;2023-04-10T05:10:43;0.80;99.90
15364;DHT22;7781;49.690;6.472;2023-04-10T05:13:21;0.90;99.90
15364;DHT22;7781;49.690;6.472;2023-04-10T05:16:08;0.90;99.90
15364;DHT22;7781;49.690;6.472;2023-04-10T05:18:53;1.00;99.90
15364;DHT22;7781;49.690;6.472;2023-04-10T05:21:42;1.00;99.90
15364;DHT22;7781;49.690;6.472;2023-04-10T05:24:45;1.10;99.90
15364;DHT22;7781;49.690;6.472;2023-04-10T05:27:22;1.10;99.90
15364;DHT22;7781;49.690;6.472;2023-04-10T05:30:11;1.10;99.90
15364;DHT22;7781;49.690;6.472;2023-04-10T05:32:58;1.20;99.90
15364;DHT22;7781;49.690;6.472;2023-04-10T05:35:42;1.30;99.90
15364;DHT22;7781;49.690;6.472;2023-04-10T05:38:29;1.30;99.90
15364;DHT22;7781;49.690;6.472;2023-04-10T05:41:39;1.40;99.90
15364;DHT22;7781;49.690;6.472;2023-04-10T05:44:23;1.40;99.90
15364;DHT22;7781;49.690;6.472;2023-04-10T05:47:03;1.50;99.90
15364;DHT22;7781;49.690;6.472;2023-04-10T05:49:37;1.60;99.90
15364;DHT22;7781;49.690;6.472;2023-04-10T05:52:27;1.60;99.90
15364;DHT22;7781;49.690;6.472;2023-04-10T05:55:01;1.70;99.90
15364;DHT22;7781;49.690;6.472;2023-04-10T05:57:50;1.80;99.90
15364;DHT22;7781;49.690;6.472;2023-04-10T06:00:31;1.90;99.90
15364;DHT22;7781;49.690;6.472;2023-04-10T06:03:17;2.00;99.90
15364;DHT22;7781;49.690;6.472;2023-04-10T06:05:55;2.10;99.90
15364;DHT22;7781;49.690;6.472;2023-04-10T06:08:26;2.20;99.90
15364;DHT22;7781;49.690;6.472;2023-04-10T06:10:55;2.30;99.90
15364;DHT22;7781;49.690;6.472;2023-04-10T06:13:23;2.40;99.90
15364;DHT22;7781;49.690;6.472;2023-04-10T06:15:58;2.50;99.90
15364;DHT22;7781;49.690;6.472;2023-04-10T06:18:29;2.60;99.90
15364;DHT22;7781;49.690;6.472;2023-04-10T06:20:58;2.70;99.90
15364;DHT22;7781;49.690;6.472;2023-04-10T06:23:28;2.90;99.90
15364;DHT22;7781;49.690;6.472;2023-04-10T06:25:58;3.10;99.90
15364;DHT22;7781;49.690;6.472;2023-04-10T06:28:28;3.20;99.90
15364;DHT22;7781;49.690;6.472;2023-04-10T06:31:05;3.30;99.90
15364;DHT22;7781;49.690;6.472;2023-04-10T06:33:36;3.50;99.90
15364;DHT22;7781;49.690;6.472;2023-04-10T06:36:08;3.60;99.90
15364;DHT22;7781;49.690;6.472;2023-04-10T06:38:59;3.70;99.90
15364;DHT22;7781;49.690;6.472;2023-04-10T06:41:30;3.80;99.90
15364;DHT22;7781;49.690;6.472;2023-04-10T06:44:11;4.00;99.90
15364;DHT22;7781;49.690;6.472;2023-04-10T06:46:44;4.10;99.90
15364;DHT22;7781;49.690;6.472;2023-04-10T06:49:13;4.30;99.90
15364;DHT22;7781;49.690;6.472;2023-04-10T06:51:41;4.40;99.90
15364;DHT22;7781;49.690;6.472;2023-04-10T06:54:12;4.40;99.90
15364;DHT22;7781;49.690;6.472;2023-04-10T06:56:40;4.60;99.90
15364;DHT22;7781;49.690;6.472;2023-04-10T06:59:09;4.70;99.90
15364;DHT22;7781;49.690;6.472;2023-04-10T07:01:38;4.80;99.90
15364;DHT22;7781;49.690;6.472;2023-04-10T07:04:09;5.00;99.90
15364;DHT22;7781;49.690;6.472;2023-04-10T07:06:39;5.00;99.90
15364;DHT22;7781;49.690;6.472;2023-04-10T07:09:07;5.10;99.90
15364;DHT22;7781;49.690;6.472;2023-04-10T07:11:36;5.20;99.90
15364;DHT22;7781;49.690;6.472;2023-04-10T07:14:07;5.30;99.90
15364;DHT22;7781;49.690;6.472;2023-04-10T07:16:35;5.40;99.90
15364;DHT22;7781;49.690;6.472;2023-04-10T07:19:07;5.60;99.90
15364;DHT22;7781;49.690;6.472;2023-04-10T07:21:38;5.70;99.90
15364;DHT22;7781;49.690;6.472;2023-04-10T07:24:07;6.00;99.90
15364;DHT22;7781;49.690;6.472;2023-04-10T07:26:35;6.20;99.90
15364;DHT22;7781;49.690;6.472;2023-04-10T07:29:04;6.60;99.90
15364;DHT22;7781;49.690;6.472;2023-04-10T07:31:33;7.00;99.90
15364;DHT22;7781;49.690;6.472;2023-04-10T07:34:04;7.30;99.90
15364;DHT22;7781;49.690;6.472;2023-04-10T07:36:34;7.50;99.90
15364;DHT22;7781;49.690;6.472;2023-04-10T07:39:04;7.70;99.90
15364;DHT22;7781;49.690;6.472;2023-04-10T07:41:33;8.10;99.90
15364;DHT22;7781;49.690;6.472;2023-04-10T07:44:03;8.40;99.90
15364;DHT22;7781;49.690;6.472;2023-04-10T07:46:32;8.90;99.90
15364;DHT22;7781;49.690;6.472;2023-04-10T07:49:01;9.30;99.90
15364;DHT22;7781;49.690;6.472;2023-04-10T07:51:34;9.70;99.90
15364;DHT22;7781;49.690;6.472;2023-04-10T07:54:06;10.10;99.90
15364;DHT22;7781;49.690;6.472;2023-04-10T07:56:34;10.40;99.90
15364;DHT22;7781;49.690;6.472;2023-04-10T07:59:04;10.70;1.00
15364;DHT22;7781;49.690;6.472;2023-04-10T08:01:33;10.70;1.00
15364;DHT22;7781;49.690;6.472;2023-04-10T08:04:02;10.70;99.90
15364;DHT22;7781;49.690;6.472;2023-04-10T08:06:32;10.60;99.90
15364;DHT22;7781;49.690;6.472;2023-04-10T08:09:01;10.80;99.90
15364;DHT22;7781;49.690;6.472;2023-04-10T08:11:35;11.00;99.90
15364;DHT22;7781;49.690;6.472;2023-04-10T08:14:05;11.20;99.90
15364;DHT22;7781;49.690;6.472;2023-04-10T08:16:35;11.30;1.00
15364;DHT22;7781;49.690;6.472;2023-04-10T08:19:04;11.60;13.70
15364;DHT22;7781;49.690;6.472;2023-04-10T08:21:34;11.80;1.00
15364;DHT22;7781;49.690;6.472;2023-04-10T08:24:04;12.10;1.00
15364;DHT22;7781;49.690;6.472;2023-04-10T08:26:35;12.30;99.90
15364;DHT22;7781;49.690;6.472;2023-04-10T08:29:05;12.50;99.90
15364;DHT22;7781;49.690;6.472;2023-04-10T08:31:34;12.70;99.90
15364;DHT22;7781;49.690;6.472;2023-04-10T08:34:03;13.00;1.00
15364;DHT22;7781;49.690;6.472;2023-04-10T08:36:34;13.10;1.00
15364;DHT22;7781;49.690;6.472;2023-04-10T08:39:04;13.30;61.20
15364;DHT22;7781;49.690;6.472;2023-04-10T08:41:36;13.60;1.00
15364;DHT22;7781;49.690;6.472;2023-04-10T08:44:05;13.60;1.00
15364;DHT22;7781;49.690;6.472;2023-04-10T08:46:36;13.70;1.00
15364;DHT22;7781;49.690;6.472;2023-04-10T08:49:12;13.70;1.00
15364;DHT22;7781;49.690;6.472;2023-04-10T08:51:47;13.50;1.00
15364;DHT22;7781;49.690;6.472;2023-04-10T08:54:25;13.50;99.90
15364;DHT22;7781;49.690;6.472;2023-04-10T08:56:59;13.40;99.90
15364;DHT22;7781;49.690;6.472;2023-04-10T08:59:28;13.40;1.00
15364;DHT22;7781;49.690;6.472;2023-04-10T09:01:58;13.50;49.50
15364;DHT22;7781;49.690;6.472;2023-04-10T09:04:27;13.50;1.00
15364;DHT22;7781;49.690;6.472;2023-04-10T09:06:55;13.60;1.00
15364;DHT22;7781;49.690;6.472;2023-04-10T09:09:24;13.80;1.00
15364;DHT22;7781;49.690;6.472;2023-04-10T09:12:00;13.90;99.90
15364;DHT22;7781;49.690;6.472;2023-04-10T09:14:32;14.10;99.90
15364;DHT22;7781;49.690;6.472;2023-04-10T09:17:18;14.20;1.00
15364;DHT22;7781;49.690;6.472;2023-04-10T09:19:48;14.10;99.90
15364;DHT22;7781;49.690;6.472;2023-04-10T09:22:28;14.20;99.90
15364;DHT22;7781;49.690;6.472;2023-04-10T09:24:58;14.40;99.90
15364;DHT22;7781;49.690;6.472;2023-04-10T09:27:32;14.60;99.90
15364;DHT22;7781;49.690;6.472;2023-04-10T09:30:03;14.70;99.90
15364;DHT22;7781;49.690;6.472;2023-04-10T09:32:36;14.70;99.90
15364;DHT22;7781;49.690;6.472;2023-04-10T09:35:06;14.90;99.90
15364;DHT22;7781;49.690;6.472;2023-04-10T09:37:37;15.10;99.90
15364;DHT22;7781;49.690;6.472;2023-04-10T09:40:19;15.30;99.90
15364;DHT22;7781;49.690;6.472;2023-04-10T09:42:51;15.40;99.90
15364;DHT22;7781;49.690;6.472;2023-04-10T09:48:25;15.50;99.90
15364;DHT22;7781;49.690;6.472;2023-04-10T09:50:54;15.60;99.90
15364;DHT22;7781;49.690;6.472;2023-04-10T09:53:23;15.70;99.90
15364;DHT22;7781;49.690;6.472;2023-04-10T09:55:52;15.60;99.90
15364;DHT22;7781;49.690;6.472;2023-04-10T09:58:25;15.40;99.90
15364;DHT22;7781;49.690;6.472;2023-04-10T10:00:55;15.50;99.90
15364;DHT22;7781;49.690;6.472;2023-04-10T10:03:32;15.50;99.90
15364;DHT22;7781;49.690;6.472;2023-04-10T10:06:02;15.40;99.90
15364;DHT22;7781;49.690;6.472;2023-04-10T10:08:35;15.40;99.90
15364;DHT22;7781;49.690;6.472;2023-04-10T10:11:05;15.30;99.90
15364;DHT22;7781;49.690;6.472;2023-04-10T10:13:46;15.30;99.90
15364;DHT22;7781;49.690;6.472;2023-04-10T10:16:20;15.20;99.90
15364;DHT22;7781;49.690;6.472;2023-04-10T10:18:59;15.40;99.90
15364;DHT22;7781;49.690;6.472;2023-04-10T10:21:28;15.30;99.90
15364;DHT22;7781;49.690;6.472;2023-04-10T10:24:02;15.40;99.90
15364;DHT22;7781;49.690;6.472;2023-04-10T10:26:35;15.40;99.90
15364;DHT22;7781;49.690;6.472;2023-04-10T10:29:08;15.60;99.90
15364;DHT22;7781;49.690;6.472;2023-04-10T10:31:37;15.60;99.90
15364;DHT22;7781;49.690;6.472;2023-04-10T10:34:08;15.60;99.90
15364;DHT22;7781;49.690;6.472;2023-04-10T10:36:38;15.80;99.90
15364;DHT22;7781;49.690;6.472;2023-04-10T10:39:20;15.90;99.90
15364;DHT22;7781;49.690;6.472;2023-04-10T10:41:55;16.20;99.90
15364;DHT22;7781;49.690;6.472;2023-04-10T10:44:35;16.20;99.90
15364;DHT22;7781;49.690;6.472;2023-04-10T10:47:14;16.30;99.90
15364;DHT22;7781;49.690;6.472;2023-04-10T10:49:51;16.30;99.90
15364;DHT22;7781;49.690;6.472;2023-04-10T10:52:40;16.50;99.90
15364;DHT22;7781;49.690;6.472;2023-04-10T10:55:29;16.40;99.90
15364;DHT22;7781;49.690;6.472;2023-04-10T10:58:05;16.60;99.90
15364;DHT22;7781;49.690;6.472;2023-04-10T11:03:41;16.50;99.90
15364;DHT22;7781;49.690;6.472;2023-04-10T11:06:16;16.60;99.90
15364;DHT22;7781;49.690;6.472;2023-04-10T11:08:47;16.70;99.90
15364;DHT22;7781;49.690;6.472;2023-04-10T11:11:19;16.60;99.90
15364;DHT22;7781;49.690;6.472;2023-04-10T11:14:12;16.50;99.90
15364;DHT22;7781;49.690;6.472;2023-04-10T11:16:47;16.50;99.90
15364;DHT22;7781;49.690;6.472;2023-04-10T11:19:17;16.70;99.90
15364;DHT22;7781;49.690;6.472;2023-04-10T11:22:03;16.90;99.90
15364;DHT22;7781;49.690;6.472;2023-04-10T11:24:55;16.50;99.90
15364;DHT22;7781;49.690;6.472;2023-04-10T11:27:38;16.40;99.90
15364;DHT22;7781;49.690;6.472;2023-04-10T11:30:31;16.30;99.90
15364;DHT22;7781;49.690;6.472;2023-04-10T11:33:02;16.30;99.90
15364;DHT22;7781;49.690;6.472;2023-04-10T11:35:34;16.30;99.90
15364;DHT22;7781;49.690;6.472;2023-04-10T11:38:16;16.00;99.90
15364;DHT22;7781;49.690;6.472;2023-04-10T11:40:56;16.20;99.90
15364;DHT22;7781;49.690;6.472;2023-04-10T11:43:25;16.40;99.90
15364;DHT22;7781;49.690;6.472;2023-04-10T11:46:03;16.30;99.90
15364;DHT22;7781;49.690;6.472;2023-04-10T11:48:35;16.50;99.90
15364;DHT22;7781;49.690;6.472;2023-04-10T11:51:14;16.50;1.00
15364;DHT22;7781;49.690;6.472;2023-04-10T11:53:43;16.60;99.90
15364;DHT22;7781;49.690;6.472;2023-04-10T11:56:18;16.60;99.90
15364;DHT22;7781;49.690;6.472;2023-04-10T11:58:51;16.60;99.90
15364;DHT22;7781;49.690;6.472;2023-04-10T12:01:22;16.80;99.90
15364;DHT22;7781;49.690;6.472;2023-04-10T12:03:52;16.80;99.90
15364;DHT22;7781;49.690;6.472;2023-04-10T12:06:25;16.90;99.90
15364;DHT22;7781;49.690;6.472;2023-04-10T12:08:54;16.90;99.90
15364;DHT22;7781;49.690;6.472;2023-04-10T12:11:25;16.90;99.90
15364;DHT22;7781;49.690;6.472;2023-04-10T12:13:55;16.90;99.90
15364;DHT22;7781;49.690;6.472;2023-04-10T12:16:26;17.20;99.90
15364;DHT22;7781;49.690;6.472;2023-04-10T12:18:58;16.90;99.90
15364;DHT22;7781;49.690;6.472;2023-04-10T12:21:28;16.60;99.90
15364;DHT22;7781;49.690;6.472;2023-04-10T12:23:58;16.30;99.90
15364;DHT22;7781;49.690;6.472;2023-04-10T12:26:26;16.40;1.00
15364;DHT22;7781;49.690;6.472;2023-04-10T12:28:56;16.60;99.90
15364;DHT22;7781;49.690;6.472;2023-04-10T12:31:28;16.70;99.90
15364;DHT22;7781;49.690;6.472;2023-04-10T12:34:00;16.50;99.90
15364;DHT22;7781;49.690;6.472;2023-04-10T12:36:31;16.40;99.90
15364;DHT22;7781;49.690;6.472;2023-04-10T12:39:03;16.20;1.00
15364;DHT22;7781;49.690;6.472;2023-04-10T12:41:33;16.10;1.00
15364;DHT22;7781;49.690;6.472;2023-04-10T12:44:09;16.10;99.90
15364;DHT22;7781;49.690;6.472;2023-04-10T12:46:41;16.00;99.90
15364;DHT22;7781;49.690;6.472;2023-04-10T12:49:12;15.90;99.90
15364;DHT22;7781;49.690;6.472;2023-04-10T12:51:46;16.00;99.90
15364;DHT22;7781;49.690;6.472;2023-04-10T12:54:48;16.10;99.90
15364;DHT22;7781;49.690;6.472;2023-04-10T12:57:25;16.00;99.90
15364;DHT22;7781;49.690;6.472;2023-04-10T12:59:54;16.10;99.90
15364;DHT22;7781;49.690;6.472;2023-04-10T13:02:26;16.30;1.00
15364;DHT22;7781;49.690;6.472;2023-04-10T13:04:55;16.40;99.90
15364;DHT22;7781;49.690;6.472;2023-04-10T13:07:27;16.30;99.90
15364;DHT22;7781;49.690;6.472;2023-04-10T13:09:56;16.20;99.90
15364;DHT22;7781;49.690;6.472;2023-04-10T13:12:24;16.30;99.90
15364;DHT22;7781;49.690;6.472;2023-04-10T13:14:56;16.20;99.90
15364;DHT22;7781;49.690;6.472;2023-04-10T13:17:26;16.10;1.00
15364;DHT22;7781;49.690;6.472;2023-04-10T13:19:57;16.10;1.00
15364;DHT22;7781;49.690;6.472;2023-04-10T13:22:28;16.30;1.00
15364;DHT22;7781;49.690;6.472;2023-04-10T13:24:57;16.40;99.90
15364;DHT22;7781;49.690;6.472;2023-04-10T13:27:26;16.70;1.00
15364;DHT22;7781;49.690;6.472;2023-04-10T13:29:55;16.80;12.20
15364;DHT22;7781;49.690;6.472;2023-04-10T13:32:25;16.60;1.00
15364;DHT22;7781;49.690;6.472;2023-04-10T13:34:54;17.00;99.90
15364;DHT22;7781;49.690;6.472;2023-04-10T13:37:23;17.00;88.60
15364;DHT22;7781;49.690;6.472;2023-04-10T13:39:54;17.00;98.70
15364;DHT22;7781;49.690;6.472;2023-04-10T13:42:23;16.80;99.90
15364;DHT22;7781;49.690;6.472;2023-04-10T13:44:53;16.70;1.00
15364;DHT22;7781;49.690;6.472;2023-04-10T13:47:22;16.70;1.00
15364;DHT22;7781;49.690;6.472;2023-04-10T13:49:51;16.70;1.00
15364;DHT22;7781;49.690;6.472;2023-04-10T13:52:21;16.70;63.50
15364;DHT22;7781;49.690;6.472;2023-04-10T13:54:49;16.80;1.00
15364;DHT22;7781;49.690;6.472;2023-04-10T13:57:20;16.60;1.00
15364;DHT22;7781;49.690;6.472;2023-04-10T13:59:58;16.70;99.90
15364;DHT22;7781;49.690;6.472;2023-04-10T14:02:27;16.70;92.40
15364;DHT22;7781;49.690;6.472;2023-04-10T14:04:58;16.60;1.00
15364;DHT22;7781;49.690;6.472;2023-04-10T14:07:29;16.60;1.00
15364;DHT22;7781;49.690;6.472;2023-04-10T14:09:59;16.50;99.90
15364;DHT22;7781;49.690;6.472;2023-04-10T14:12:29;16.60;1.00
15364;DHT22;7781;49.690;6.472;2023-04-10T14:15:00;16.70;1.00
15364;DHT22;7781;49.690;6.472;2023-04-10T14:17:31;16.80;99.90
15364;DHT22;7781;49.690;6.472;2023-04-10T14:20:01;16.90;1.00
15364;DHT22;7781;49.690;6.472;2023-04-10T14:22:29;17.00;1.00
15364;DHT22;7781;49.690;6.472;2023-04-10T14:24:58;16.90;99.90
15364;DHT22;7781;49.690;6.472;2023-04-10T14:27:42;16.90;99.90
15364;DHT22;7781;49.690;6.472;2023-04-10T14:30:11;16.90;1.00
15364;DHT22;7781;49.690;6.472;2023-04-10T14:32:41;16.90;99.90
15364;DHT22;7781;49.690;6.472;2023-04-10T14:35:13;16.80;99.90
15364;DHT22;7781;49.690;6.472;2023-04-10T14:37:42;16.90;28.60
15364;DHT22;7781;49.690;6.472;2023-04-10T14:40:11;16.90;1.00
15364;DHT22;7781;49.690;6.472;2023-04-10T14:42:42;16.90;1.00
15364;DHT22;7781;49.690;6.472;2023-04-10T14:45:12;16.90;1.00
15364;DHT22;7781;49.690;6.472;2023-04-10T14:47:41;16.60;99.90
15364;DHT22;7781;49.690;6.472;2023-04-10T14:50:10;16.50;1.00
15364;DHT22;7781;49.690;6.472;2023-04-10T14:52:40;16.40;99.90
15364;DHT22;7781;49.690;6.472;2023-04-10T14:55:09;16.30;5.70
15364;DHT22;7781;49.690;6.472;2023-04-10T14:57:42;16.30;1.00
15364;DHT22;7781;49.690;6.472;2023-04-10T15:00:12;16.40;1.00
15364;DHT22;7781;49.690;6.472;2023-04-10T15:02:41;16.40;1.00
15364;DHT22;7781;49.690;6.472;2023-04-10T15:05:11;16.50;1.00
15364;DHT22;7781;49.690;6.472;2023-04-10T15:07:41;16.50;1.00
15364;DHT22;7781;49.690;6.472;2023-04-10T15:10:10;16.30;1.00
15364;DHT22;7781;49.690;6.472;2023-04-10T15:12:39;16.30;99.90
15364;DHT22;7781;49.690;6.472;2023-04-10T15:15:10;16.30;27.20
15364;DHT22;7781;49.690;6.472;2023-04-10T15:17:39;16.30;1.00
15364;DHT22;7781;49.690;6.472;2023-04-10T15:20:09;16.30;1.00
15364;DHT22;7781;49.690;6.472;2023-04-10T15:22:38;16.20;1.00
15364;DHT22;7781;49.690;6.472;2023-04-10T15:25:08;16.10;1.00
15364;DHT22;7781;49.690;6.472;2023-04-10T15:27:39;16.10;99.90
15364;DHT22;7781;49.690;6.472;2023-04-10T15:30:10;16.10;99.90
15364;DHT22;7781;49.690;6.472;2023-04-10T15:32:39;16.00;1.00
15364;DHT22;7781;49.690;6.472;2023-04-10T15:35:08;16.00;1.00
15364;DHT22;7781;49.690;6.472;2023-04-10T15:37:38;16.00;99.90
15364;DHT22;7781;49.690;6.472;2023-04-10T15:40:08;15.90;1.00
15364;DHT22;7781;49.690;6.472;2023-04-10T15:42:38;15.90;1.00
15364;DHT22;7781;49.690;6.472;2023-04-10T15:45:07;16.00;99.90
15364;DHT22;7781;49.690;6.472;2023-04-10T15:47:38;16.00;1.00
15364;DHT22;7781;49.690;6.472;2023-04-10T15:50:07;16.00;1.00
15364;DHT22;7781;49.690;6.472;2023-04-10T15:52:36;15.90;1.00
15364;DHT22;7781;49.690;6.472;2023-04-10T15:55:06;15.80;1.00
15364;DHT22;7781;49.690;6.472;2023-04-10T15:57:35;15.90;1.00
15364;DHT22;7781;49.690;6.472;2023-04-10T16:00:05;15.90;33.60
15364;DHT22;7781;49.690;6.472;2023-04-10T16:02:34;15.90;99.90
15364;DHT22;7781;49.690;6.472;2023-04-10T16:05:08;15.90;63.80
15364;DHT22;7781;49.690;6.472;2023-04-10T16:07:37;15.80;1.00
15364;DHT22;7781;49.690;6.472;2023-04-10T16:10:09;15.80;1.00
15364;DHT22;7781;49.690;6.472;2023-04-10T16:12:39;15.80;1.00
15364;DHT22;7781;49.690;6.472;2023-04-10T16:15:10;15.80;1.00
15364;DHT22;7781;49.690;6.472;2023-04-10T16:17:40;15.80;99.90
15364;DHT22;7781;49.690;6.472;2023-04-10T16:20:12;15.80;99.90
15364;DHT22;7781;49.690;6.472;2023-04-10T16:22:41;15.90;53.30
15364;DHT22;7781;49.690;6.472;2023-04-10T16:25:10;16.00;35.20
15364;DHT22;7781;49.690;6.472;2023-04-10T16:27:40;16.00;41.80
15364;DHT22;7781;49.690;6.472;2023-04-10T16:30:11;16.00;99.90
15364;DHT22;7781;49.690;6.472;2023-04-10T16:32:42;16.00;1.00
15364;DHT22;7781;49.690;6.472;2023-04-10T16:35:13;16.00;99.90
15364;DHT22;7781;49.690;6.472;2023-04-10T16:37:44;16.00;1.00
15364;DHT22;7781;49.690;6.472;2023-04-10T16:40:13;15.90;1.00
15364;DHT22;7781;49.690;6.472;2023-04-10T16:42:43;15.90;1.00